Time;durP1;ratioP1;P1;durP2;ratioP2;P2;SDS_P1;SDS_P2;PMS_P1;PMS_P2;Temp;Humidity;BMP_temperature;BMP_pressure;BME280_temperature;BME280_humidity;BME280_pressure;Samples;Min_cycle;Max_cycle;Signal;HPM_P1;HPM_P2
2021/12/16 00:08:53;;;;;;;19.90;7.45;;;;;;;;;;5064480;28;20037;-74
2021/12/16 00:19:47;;;;;;;17.35;6.72;;;;;;;;;;5054905;28;20049;-73
2021/12/16 00:33:14;;;;;;;23.00;7.97;;;;;;;;;;5099027;28;20040;-73
2021/12/16 00:35:41;;;;;;;17.15;6.18;;;;;;;;;;5098845;28;20199;-74
2021/12/16 00:38:07;;;;;;;15.18;6.10;;;;;;;;;;5094480;28;20045;-74
2021/12/16 00:40:34;;;;;;;22.02;6.53;;;;;;;;;;5097120;28;20044;-74
2021/12/16 00:43:13;;;;;;;18.38;6.10;;;;;;;;;;5094267;28;20439;-74
2021/12/16 00:48:23;;;;;;;17.45;5.82;;;;;;;;;;5066330;28;20071;-74
2021/12/16 00:56:05;;;;;;;21.27;5.90;;;;;;;;;;5101547;28;20045;-74
2021/12/16 00:58:38;;;;;;;19.23;6.90;;;;;;;;;;5069208;28;20419;-74
2021/12/16 01:07:09;;;;;;;15.90;5.57;;;;;;;;;;5063069;28;20135;-74
2021/12/16 01:09:16;;;;;;;12.05;5.53;;;;;;;;;;5091111;28;20144;-74
2021/12/16 01:55:20;;;;;;;22.02;4.82;;;;;;;;;;5095566;28;20044;-73
2021/12/16 01:57:48;;;;;;;20.63;6.30;;;;;;;;;;5063006;28;20044;-73
2021/12/16 02:00:18;;;;;;;14.20;5.13;;;;;;;;;;5099724;28;20057;-73
2021/12/16 02:02:50;;;;;;;16.10;5.15;;;;;;;;;;5094482;28;20040;-73
2021/12/16 02:10:36;;;;;;;16.55;5.72;;;;;;;;;;5066307;28;20056;-74
2021/12/16 02:13:31;;;;;;;18.40;5.80;;;;;;;;;;5067000;28;20045;-74
2021/12/16 02:27:35;;;;;;;16.08;5.38;;;;;;;;;;5063295;28;20040;-73
2021/12/16 02:32:54;;;;;;;15.55;5.57;;;;;;;;;;5093967;28;20076;-73
2021/12/16 02:37:52;;;;;;;17.60;6.10;;;;;;;;;;5099003;28;20044;-73
2021/12/16 02:40:19;;;;;;;17.90;5.95;;;;;;;;;;5066614;28;20403;-73
2021/12/16 02:42:58;;;;;;;19.73;5.82;;;;;;;;;;5095348;27;20079;-73
2021/12/16 02:48:45;;;;;;;19.73;5.90;;;;;;;;;;5064584;28;20052;-73
2021/12/16 02:51:08;;;;;;;19.08;5.55;;;;;;;;;;5090717;28;20036;-74
2021/12/16 02:53:36;;;;;;;18.70;5.80;;;;;;;;;;5097101;28;20123;-73
2021/12/16 02:56:02;;;;;;;19.13;6.25;;;;;;;;;;5067936;28;20040;-73
2021/12/16 02:58:28;;;;;;;19.75;6.85;;;;;;;;;;5093736;28;20499;-74
2021/12/16 03:01:06;;;;;;;19.60;5.88;;;;;;;;;;5063801;28;20045;-74
2021/12/16 03:03:34;;;;;;;24.83;6.18;;;;;;;;;;5062556;28;20041;-74
2021/12/16 03:06:02;;;;;;;16.55;6.25;;;;;;;;;;5064110;28;20511;-74
2021/12/16 03:08:29;;;;;;;24.55;7.60;;;;;;;;;;5094546;28;20041;-73
2021/12/16 03:11:02;;;;;;;18.13;7.00;;;;;;;;;;5067549;28;20120;-74
2021/12/16 03:13:41;;;;;;;21.13;6.70;;;;;;;;;;5062328;28;20048;-73
2021/12/16 03:16:27;;;;;;;16.98;6.13;;;;;;;;;;5059523;28;20070;-74
2021/12/16 03:21:54;;;;;;;17.90;6.55;;;;;;;;;;5079723;28;20082;-74
2021/12/16 03:24:44;;;;;;;16.77;6.65;;;;;;;;;;5065786;28;20406;-73
2021/12/16 03:35:01;;;;;;;20.90;7.18;;;;;;;;;;5095711;28;20044;-73
2021/12/16 03:37:31;;;;;;;19.25;7.13;;;;;;;;;;5066903;28;20045;-73
2021/12/16 03:39:57;;;;;;;21.73;6.82;;;;;;;;;;5098022;28;20040;-73
2021/12/16 03:42:26;;;;;;;20.92;7.47;;;;;;;;;;5067378;28;20105;-74
2021/12/16 03:44:59;;;;;;;16.55;6.45;;;;;;;;;;5098300;28;20123;-73
2021/12/16 03:47:34;;;;;;;17.60;6.97;;;;;;;;;;5064736;28;20131;-74
2021/12/16 03:50:05;;;;;;;21.10;7.38;;;;;;;;;;5060476;28;20378;-74
2021/12/16 03:52:31;;;;;;;17.88;8.18;;;;;;;;;;5093522;28;20071;-73
2021/12/16 03:54:58;;;;;;;19.63;7.65;;;;;;;;;;5064654;28;20068;-74
2021/12/16 03:57:25;;;;;;;18.98;7.85;;;;;;;;;;5066048;28;20097;-74
2021/12/16 03:59:51;;;;;;;13.98;7.13;;;;;;;;;;5063371;28;20056;-73
2021/12/16 04:02:20;;;;;;;25.65;8.30;;;;;;;;;;5064995;28;20045;-73
2021/12/16 04:04:47;;;;;;;20.85;8.07;;;;;;;;;;5065180;28;20519;-73
2021/12/16 04:07:14;;;;;;;21.42;8.73;;;;;;;;;;5068552;28;20098;-73
2021/12/16 04:09:40;;;;;;;20.88;8.43;;;;;;;;;;5065427;28;20064;-74
2021/12/16 04:12:12;;;;;;;25.52;7.85;;;;;;;;;;5072255;28;20040;-74
2021/12/16 04:14:39;;;;;;;19.00;7.80;;;;;;;;;;5063718;28;20056;-73
2021/12/16 04:17:06;;;;;;;22.65;8.55;;;;;;;;;;5069211;28;20060;-74
2021/12/16 04:19:33;;;;;;;19.80;7.82;;;;;;;;;;5066730;28;20040;-73
2021/12/16 04:22:11;;;;;;;20.98;8.40;;;;;;;;;;5071744;28;20044;-73
2021/12/16 04:24:37;;;;;;;21.25;8.75;;;;;;;;;;5063740;28;20068;-73
2021/12/16 04:27:04;;;;;;;25.75;9.00;;;;;;;;;;5072146;28;20083;-74
2021/12/16 04:29:33;;;;;;;18.17;8.50;;;;;;;;;;5097923;28;20037;-73
2021/12/16 04:32:00;;;;;;;25.70;8.85;;;;;;;;;;5071625;28;20488;-73
2021/12/16 04:34:26;;;;;;;20.77;8.73;;;;;;;;;;5067416;28;20567;-73
2021/12/16 04:36:53;;;;;;;21.08;8.95;;;;;;;;;;5100463;28;20491;-73
2021/12/16 04:39:21;;;;;;;21.08;9.40;;;;;;;;;;5067505;28;20049;-73
2021/12/16 04:41:47;;;;;;;24.98;9.18;;;;;;;;;;5069762;28;20055;-73
2021/12/16 04:44:14;;;;;;;20.77;9.40;;;;;;;;;;5063076;28;20037;-73
2021/12/16 04:46:40;;;;;;;23.05;8.50;;;;;;;;;;5099326;28;20146;-73
2021/12/16 04:49:08;;;;;;;21.02;9.05;;;;;;;;;;5064111;28;20082;-73
2021/12/16 04:51:35;;;;;;;19.70;9.43;;;;;;;;;;5099124;28;20535;-73
2021/12/16 04:54:03;;;;;;;19.42;9.48;;;;;;;;;;5098038;28;20395;-73
2021/12/16 04:56:29;;;;;;;23.27;8.93;;;;;;;;;;5069698;28;20059;-73
2021/12/16 04:58:55;;;;;;;20.55;9.32;;;;;;;;;;5069532;28;20412;-72
2021/12/16 05:01:22;;;;;;;24.75;9.68;;;;;;;;;;5065042;28;20191;-73
2021/12/16 05:03:48;;;;;;;19.35;8.82;;;;;;;;;;5067219;28;20132;-73
2021/12/16 05:06:15;;;;;;;22.73;9.15;;;;;;;;;;5069312;28;20507;-73
2021/12/16 05:08:41;;;;;;;28.42;9.85;;;;;;;;;;5068887;28;20500;-73
2021/12/16 05:11:09;;;;;;;23.35;9.48;;;;;;;;;;5066912;28;20094;-73
2021/12/16 05:13:36;;;;;;;18.30;8.95;;;;;;;;;;5099773;28;20049;-73
2021/12/16 05:16:04;;;;;;;20.02;9.02;;;;;;;;;;5068126;28;20037;-73
2021/12/16 05:18:33;;;;;;;22.95;9.48;;;;;;;;;;5095345;28;20053;-73
2021/12/16 05:21:15;;;;;;;25.30;9.85;;;;;;;;;;5064821;28;20082;-73
2021/12/16 05:26:28;;;;;;;27.58;10.35;;;;;;;;;;5099450;28;20048;-73
2021/12/16 05:28:56;;;;;;;23.30;10.23;;;;;;;;;;5064165;28;20056;-73
2021/12/16 05:31:23;;;;;;;27.27;10.43;;;;;;;;;;5067535;28;20472;-73
2021/12/16 05:33:50;;;;;;;28.08;10.27;;;;;;;;;;5061512;28;20067;-73
2021/12/16 05:36:17;;;;;;;22.08;9.35;;;;;;;;;;5064859;28;20040;-72
2021/12/16 05:38:44;;;;;;;24.05;9.57;;;;;;;;;;5063023;28;20567;-72
2021/12/16 05:41:11;;;;;;;29.40;9.68;;;;;;;;;;5059972;28;20136;-73
2021/12/16 05:43:38;;;;;;;25.58;10.82;;;;;;;;;;5070353;28;20094;-73
2021/12/16 05:46:04;;;;;;;21.15;10.13;;;;;;;;;;5064695;28;20412;-73
2021/12/16 05:48:35;;;;;;;29.70;10.60;;;;;;;;;;5065638;28;20048;-73
2021/12/16 05:51:04;;;;;;;21.85;9.10;;;;;;;;;;5062624;28;20106;-73
2021/12/16 05:53:30;;;;;;;27.80;10.20;;;;;;;;;;5061555;28;20037;-73
2021/12/16 05:55:57;;;;;;;27.98;10.07;;;;;;;;;;5064765;28;20102;-72
2021/12/16 05:58:24;;;;;;;26.10;9.38;;;;;;;;;;5064845;28;20515;-72
2021/12/16 06:00:54;;;;;;;23.17;9.40;;;;;;;;;;5060727;28;20145;-73
2021/12/16 06:03:21;;;;;;;20.05;9.10;;;;;;;;;;5066943;28;20098;-73
2021/12/16 06:05:47;;;;;;;30.27;10.55;;;;;;;;;;5065743;28;20051;-73
2021/12/16 06:08:13;;;;;;;24.58;9.68;;;;;;;;;;5067537;28;20053;-73
2021/12/16 06:13:17;;;;;;;26.13;10.18;;;;;;;;;;5063118;28;20049;-73
2021/12/16 06:26:53;;;;;;;26.27;10.60;;;;;;;;;;5062441;28;20057;-73
2021/12/16 06:29:20;;;;;;;28.63;10.02;;;;;;;;;;5063793;28;20044;-73
2021/12/16 06:31:46;;;;;;;29.85;10.93;;;;;;;;;;5065050;28;20550;-74
2021/12/16 06:34:12;;;;;;;37.67;11.77;;;;;;;;;;5064149;28;20345;-74
2021/12/16 06:36:38;;;;;;;28.25;11.90;;;;;;;;;;5063279;28;20261;-73
2021/12/16 06:39:05;;;;;;;27.85;10.45;;;;;;;;;;5064777;28;20131;-74
2021/12/16 06:41:35;;;;;;;23.35;11.05;;;;;;;;;;5061207;28;20113;-73
2021/12/16 06:44:05;;;;;;;24.73;10.80;;;;;;;;;;5067879;28;20396;-73
2021/12/16 06:46:35;;;;;;;29.35;11.32;;;;;;;;;;5065692;28;20045;-73
2021/12/16 06:49:02;;;;;;;25.75;11.15;;;;;;;;;;5065329;28;20040;-73
2021/12/16 06:51:46;;;;;;;27.27;10.57;;;;;;;;;;5061261;28;20045;-73
2021/12/16 06:54:20;;;;;;;35.05;10.68;;;;;;;;;;5097987;28;20105;-73
2021/12/16 06:56:55;;;;;;;28.45;11.27;;;;;;;;;;5064639;28;20063;-73
2021/12/16 06:59:29;;;;;;;26.25;11.95;;;;;;;;;;5058877;28;20053;-74
2021/12/16 07:02:14;;;;;;;26.55;10.68;;;;;;;;;;5064998;28;20048;-73
2021/12/16 07:04:43;;;;;;;34.40;11.77;;;;;;;;;;5073952;28;20424;-74
2021/12/16 07:07:09;;;;;;;28.90;11.60;;;;;;;;;;5098470;28;20063;-73
2021/12/16 07:09:36;;;;;;;25.13;10.43;;;;;;;;;;5090839;28;20033;-73
2021/12/16 07:12:03;;;;;;;29.08;11.57;;;;;;;;;;5067267;28;20487;-73
2021/12/16 07:14:37;;;;;;;21.17;10.95;;;;;;;;;;5064082;28;20056;-73
2021/12/16 07:17:06;;;;;;;26.13;10.70;;;;;;;;;;5067134;28;20036;-73
2021/12/16 07:19:32;;;;;;;27.58;10.93;;;;;;;;;;5056779;28;20052;-74
2021/12/16 07:21:58;;;;;;;26.60;10.23;;;;;;;;;;5068276;28;20118;-73
2021/12/16 07:24:24;;;;;;;27.33;11.07;;;;;;;;;;5063636;28;20094;-73
2021/12/16 07:26:50;;;;;;;29.55;12.15;;;;;;;;;;5067450;28;20775;-73
2021/12/16 07:29:16;;;;;;;25.38;11.82;;;;;;;;;;5064836;28;20075;-73
2021/12/16 07:31:42;;;;;;;31.73;11.88;;;;;;;;;;5062102;28;20561;-73
2021/12/16 07:34:09;;;;;;;31.98;12.13;;;;;;;;;;5067820;28;20040;-73
2021/12/16 07:36:36;;;;;;;29.85;11.02;;;;;;;;;;5059484;28;20543;-74
2021/12/16 07:39:06;;;;;;;32.60;11.60;;;;;;;;;;5070442;28;20123;-73
2021/12/16 07:41:34;;;;;;;23.88;10.48;;;;;;;;;;5069489;28;20105;-74
2021/12/16 07:44:10;;;;;;;25.70;10.30;;;;;;;;;;5071406;28;20044;-73
2021/12/16 07:46:41;;;;;;;31.42;10.45;;;;;;;;;;5067525;28;20162;-74
2021/12/16 07:49:08;;;;;;;31.05;11.52;;;;;;;;;;5095102;28;20044;-74
2021/12/16 07:51:34;;;;;;;30.70;12.00;;;;;;;;;;5067643;28;20407;-74
2021/12/16 07:54:01;;;;;;;24.58;11.88;;;;;;;;;;5067950;28;20052;-73
2021/12/16 07:56:27;;;;;;;25.92;11.70;;;;;;;;;;5093276;28;20123;-74
2021/12/16 07:58:54;;;;;;;28.92;11.30;;;;;;;;;;5060107;28;20088;-73
2021/12/16 08:01:21;;;;;;;28.73;11.82;;;;;;;;;;5093433;28;20049;-74
2021/12/16 08:03:47;;;;;;;26.63;10.73;;;;;;;;;;5060789;28;20052;-73
2021/12/16 08:06:20;;;;;;;27.27;10.93;;;;;;;;;;5065240;28;20040;-73
2021/12/16 08:08:46;;;;;;;35.72;11.50;;;;;;;;;;5061653;28;20040;-73
2021/12/16 08:11:12;;;;;;;29.15;12.02;;;;;;;;;;5098043;28;20106;-73
2021/12/16 08:13:39;;;;;;;29.40;11.32;;;;;;;;;;5063605;28;20101;-73
2021/12/16 08:16:05;;;;;;;27.67;11.00;;;;;;;;;;5064605;28;20133;-73
2021/12/16 08:18:31;;;;;;;27.80;10.25;;;;;;;;;;5067158;28;20503;-73
2021/12/16 08:20:58;;;;;;;34.22;11.55;;;;;;;;;;5065614;28;20539;-73
2021/12/16 08:23:24;;;;;;;25.92;11.05;;;;;;;;;;5062614;28;20110;-73
2021/12/16 08:25:50;;;;;;;33.38;12.35;;;;;;;;;;5063329;28;20059;-73
2021/12/16 08:28:16;;;;;;;35.08;11.35;;;;;;;;;;5067146;28;20518;-73
2021/12/16 08:30:44;;;;;;;36.17;12.45;;;;;;;;;;5068440;28;20379;-73
2021/12/16 08:33:12;;;;;;;34.00;11.73;;;;;;;;;;5094287;28;20390;-73
2021/12/16 08:35:40;;;;;;;34.05;11.93;;;;;;;;;;5070106;28;20068;-73
2021/12/16 08:38:06;;;;;;;29.25;11.60;;;;;;;;;;5060939;28;20472;-73
2021/12/16 08:40:33;;;;;;;34.75;11.95;;;;;;;;;;5064208;28;20761;-73
2021/12/16 08:42:59;;;;;;;28.88;11.65;;;;;;;;;;5101652;28;20083;-73
2021/12/16 08:45:28;;;;;;;29.27;12.07;;;;;;;;;;5061025;28;20064;-73
2021/12/16 08:47:55;;;;;;;29.80;12.10;;;;;;;;;;5062841;28;20547;-73
2021/12/16 08:50:23;;;;;;;28.83;12.10;;;;;;;;;;5067365;28;20502;-73
2021/12/16 08:52:49;;;;;;;29.52;13.95;;;;;;;;;;5099459;28;20102;-73
2021/12/16 08:55:16;;;;;;;28.30;13.75;;;;;;;;;;5067837;28;20117;-73
2021/12/16 08:57:42;;;;;;;35.22;14.70;;;;;;;;;;5068250;28;20135;-73
2021/12/16 09:00:10;;;;;;;33.10;13.68;;;;;;;;;;5099476;28;20126;-73
2021/12/16 09:02:36;;;;;;;40.08;15.27;;;;;;;;;;5069748;28;20040;-73
2021/12/16 09:05:03;;;;;;;43.13;15.02;;;;;;;;;;5062685;28;20049;-73
2021/12/16 09:07:29;;;;;;;35.65;14.18;;;;;;;;;;5096755;28;20036;-74
2021/12/16 09:09:56;;;;;;;32.72;14.65;;;;;;;;;;5063958;28;20047;-74
2021/12/16 09:15:02;;;;;;;33.25;15.77;;;;;;;;;;5069506;28;20044;-73
2021/12/16 09:17:28;;;;;;;35.30;16.17;;;;;;;;;;5054799;28;20052;-73
2021/12/16 09:19:55;;;;;;;32.63;15.93;;;;;;;;;;5058837;28;20087;-74
2021/12/16 09:22:22;;;;;;;36.08;15.88;;;;;;;;;;5065459;28;20083;-73
2021/12/16 09:24:49;;;;;;;32.30;15.40;;;;;;;;;;5061666;28;20041;-74
2021/12/16 09:27:16;;;;;;;30.30;14.88;;;;;;;;;;5065224;28;20044;-73
2021/12/16 09:29:42;;;;;;;37.00;14.75;;;;;;;;;;5066174;28;20047;-73
2021/12/16 09:32:08;;;;;;;34.05;15.55;;;;;;;;;;5065301;28;20496;-74
2021/12/16 09:34:35;;;;;;;34.05;14.75;;;;;;;;;;5061738;28;20159;-73
2021/12/16 09:37:01;;;;;;;38.03;15.98;;;;;;;;;;5060918;28;20045;-73
2021/12/16 09:39:27;;;;;;;34.28;15.60;;;;;;;;;;5062793;28;20515;-73
2021/12/16 09:41:57;;;;;;;35.90;14.45;;;;;;;;;;5062311;28;20080;-73
2021/12/16 09:44:23;;;;;;;30.38;15.10;;;;;;;;;;5093802;28;20408;-73
2021/12/16 09:46:50;;;;;;;35.38;15.40;;;;;;;;;;5066084;28;20139;-73
2021/12/16 09:49:17;;;;;;;35.22;14.40;;;;;;;;;;5063566;28;20044;-73
2021/12/16 09:51:45;;;;;;;35.88;15.38;;;;;;;;;;5062923;28;20119;-73
2021/12/16 09:54:16;;;;;;;32.60;15.80;;;;;;;;;;5060763;28;20091;-73
2021/12/16 09:56:44;;;;;;;31.20;16.42;;;;;;;;;;5063085;28;20044;-73
2021/12/16 09:59:13;;;;;;;36.42;16.83;;;;;;;;;;5065788;28;20072;-74
2021/12/16 10:01:39;;;;;;;31.52;15.60;;;;;;;;;;5091284;28;20076;-74
2021/12/16 10:04:07;;;;;;;34.85;17.05;;;;;;;;;;5091859;28;20080;-74
2021/12/16 10:06:39;;;;;;;42.03;15.50;;;;;;;;;;5067104;28;20155;-73
2021/12/16 10:09:06;;;;;;;41.33;17.73;;;;;;;;;;5063135;28;20044;-74
2021/12/16 10:11:34;;;;;;;33.38;16.10;;;;;;;;;;5066114;28;20173;-73
2021/12/16 10:14:18;;;;;;;30.30;15.55;;;;;;;;;;5065054;28;20098;-74
2021/12/16 10:19:31;;;;;;;31.60;15.43;;;;;;;;;;5093829;28;19964;-74
2021/12/16 10:22:39;;;;;;;36.80;16.20;;;;;;;;;;5068690;28;20140;-73
2021/12/16 10:25:16;;;;;;;42.40;15.90;;;;;;;;;;5002515;28;20077;-73
2021/12/16 10:27:54;;;;;;;36.45;16.70;;;;;;;;;;5002698;28;20038;-73
2021/12/16 10:30:20;;;;;;;33.42;16.35;;;;;;;;;;5028384;28;20444;-73
2021/12/16 10:32:49;;;;;;;38.35;17.35;;;;;;;;;;5067866;28;20051;-74
2021/12/16 10:35:27;;;;;;;31.95;15.48;;;;;;;;;;5067432;28;20059;-73
2021/12/16 10:37:55;;;;;;;33.65;15.55;;;;;;;;;;5061038;28;20044;-73
2021/12/16 10:40:43;;;;;;;37.10;16.55;;;;;;;;;;5093051;28;20052;-73
2021/12/16 10:43:15;;;;;;;34.60;16.40;;;;;;;;;;5067384;28;20539;-73
2021/12/16 10:45:46;;;;;;;29.70;15.80;;;;;;;;;;5069297;28;20033;-73
2021/12/16 10:48:18;;;;;;;33.92;16.15;;;;;;;;;;5063904;28;20492;-73
2021/12/16 10:50:52;;;;;;;38.40;15.63;;;;;;;;;;5095253;28;20056;-73
2021/12/16 10:53:37;;;;;;;27.55;15.45;;;;;;;;;;5067985;28;20415;-73
2021/12/16 10:56:06;;;;;;;33.38;15.30;;;;;;;;;;5063163;28;20072;-73
2021/12/16 10:58:46;;;;;;;37.03;15.52;;;;;;;;;;5062059;28;20455;-74
2021/12/16 11:01:31;;;;;;;35.58;15.60;;;;;;;;;;5064214;28;20060;-73
2021/12/16 11:03:58;;;;;;;34.95;15.88;;;;;;;;;;5065951;28;20048;-74
2021/12/16 11:06:28;;;;;;;34.05;16.17;;;;;;;;;;5058906;28;20037;-73
2021/12/16 11:08:54;;;;;;;36.17;16.60;;;;;;;;;;5062348;28;20084;-74
2021/12/16 11:11:30;;;;;;;32.38;16.27;;;;;;;;;;5066744;28;20040;-73
2021/12/16 11:14:04;;;;;;;32.30;16.08;;;;;;;;;;5059695;28;20128;-74
2021/12/16 11:16:31;;;;;;;32.83;16.60;;;;;;;;;;5065258;28;20149;-73
2021/12/16 11:18:57;;;;;;;36.25;17.40;;;;;;;;;;5065741;28;20046;-73
2021/12/16 11:21:31;;;;;;;36.80;15.95;;;;;;;;;;5101090;28;20080;-73
2021/12/16 11:23:57;;;;;;;28.98;15.85;;;;;;;;;;5058382;28;20484;-73
2021/12/16 11:26:28;;;;;;;33.22;16.05;;;;;;;;;;5067134;28;20049;-73
2021/12/16 11:28:55;;;;;;;30.65;15.00;;;;;;;;;;5054814;28;20477;-74
2021/12/16 11:31:26;;;;;;;28.88;15.18;;;;;;;;;;5064591;28;20090;-74
2021/12/16 11:34:06;;;;;;;30.23;16.15;;;;;;;;;;5060921;28;20041;-74
2021/12/16 11:36:37;;;;;;;30.17;15.98;;;;;;;;;;5065959;28;20044;-73
2021/12/16 11:39:06;;;;;;;36.75;17.00;;;;;;;;;;5065835;28;20119;-73
2021/12/16 11:41:32;;;;;;;34.78;15.70;;;;;;;;;;5095226;28;20133;-72
2021/12/16 11:43:58;;;;;;;33.53;17.33;;;;;;;;;;5058961;28;20102;-73
2021/12/16 11:46:33;;;;;;;30.55;16.88;;;;;;;;;;5088435;28;20052;-73
2021/12/16 11:49:03;;;;;;;31.23;15.40;;;;;;;;;;5055946;28;20048;-73
2021/12/16 11:51:31;;;;;;;30.55;15.18;;;;;;;;;;5056638;28;20092;-73
2021/12/16 11:53:59;;;;;;;34.60;15.75;;;;;;;;;;5063821;28;20053;-73
2021/12/16 11:56:43;;;;;;;33.17;15.73;;;;;;;;;;5060561;28;20049;-73
2021/12/16 11:59:10;;;;;;;23.88;14.85;;;;;;;;;;5093651;28;20060;-72
2021/12/16 12:01:37;;;;;;;32.55;14.90;;;;;;;;;;5063981;28;20068;-72
2021/12/16 12:04:05;;;;;;;29.27;14.77;;;;;;;;;;5063934;28;20063;-73
2021/12/16 12:06:34;;;;;;;28.02;14.30;;;;;;;;;;5055645;28;20127;-73
2021/12/16 12:09:01;;;;;;;27.38;15.73;;;;;;;;;;5098319;28;20042;-73
2021/12/16 12:11:29;;;;;;;25.70;14.93;;;;;;;;;;5060249;28;20106;-73
2021/12/16 12:14:06;;;;;;;26.58;15.20;;;;;;;;;;5060078;28;20387;-73
2021/12/16 12:16:40;;;;;;;25.17;14.30;;;;;;;;;;5056978;28;20048;-72
2021/12/16 12:19:13;;;;;;;28.52;15.25;;;;;;;;;;5058490;28;20044;-72
2021/12/16 12:21:41;;;;;;;24.05;14.65;;;;;;;;;;5062230;28;20143;-72
2021/12/16 12:24:07;;;;;;;28.48;15.38;;;;;;;;;;5063853;28;20055;-72
2021/12/16 12:26:35;;;;;;;32.25;14.68;;;;;;;;;;5095639;28;20037;-72
2021/12/16 12:29:04;;;;;;;24.50;14.95;;;;;;;;;;5072012;28;20043;-72
2021/12/16 12:31:32;;;;;;;28.35;13.50;;;;;;;;;;5064060;28;20037;-72
2021/12/16 12:33:58;;;;;;;23.42;14.35;;;;;;;;;;5065943;28;20090;-72
2021/12/16 12:36:25;;;;;;;27.00;15.13;;;;;;;;;;5069650;28;20040;-72
2021/12/16 12:38:52;;;;;;;29.65;14.13;;;;;;;;;;5066930;28;20048;-72
2021/12/16 12:41:18;;;;;;;27.10;14.55;;;;;;;;;;5064385;28;20492;-72
2021/12/16 12:43:45;;;;;;;24.80;12.95;;;;;;;;;;5073265;28;20047;-73
2021/12/16 12:46:13;;;;;;;27.23;13.65;;;;;;;;;;5064859;28;20506;-73
2021/12/16 12:48:40;;;;;;;18.58;11.85;;;;;;;;;;5066295;28;20080;-73
2021/12/16 12:51:06;;;;;;;20.33;11.38;;;;;;;;;;5060196;28;20055;-73
2021/12/16 12:53:34;;;;;;;21.13;11.43;;;;;;;;;;5066827;28;20067;-73
2021/12/16 12:56:12;;;;;;;19.15;11.20;;;;;;;;;;5057491;28;20048;-73
2021/12/16 12:59:15;;;;;;;18.25;10.43;;;;;;;;;;5065347;28;20088;-73
2021/12/16 13:01:52;;;;;;;18.80;10.13;;;;;;;;;;5058856;28;20132;-74
2021/12/16 13:04:34;;;;;;;22.33;10.27;;;;;;;;;;5057455;28;20304;-73
2021/12/16 13:07:08;;;;;;;19.02;10.18;;;;;;;;;;5081134;28;20056;-73
2021/12/16 13:09:46;;;;;;;22.75;10.43;;;;;;;;;;5069231;28;20135;-73
2021/12/16 13:12:40;;;;;;;15.95;9.85;;;;;;;;;;5066111;28;20064;-73
2021/12/16 13:15:32;;;;;;;17.38;9.57;;;;;;;;;;5068868;28;20105;-72
2021/12/16 13:23:39;;;;;;;19.30;10.13;;;;;;;;;;5061233;28;20048;-72
2021/12/16 13:28:43;;;;;;;16.70;9.85;;;;;;;;;;5095787;28;20032;-72
2021/12/16 13:31:30;;;;;;;16.63;10.27;;;;;;;;;;5061203;28;20044;-73
2021/12/16 13:33:59;;;;;;;20.00;10.95;;;;;;;;;;5057402;28;20041;-73
2021/12/16 13:36:46;;;;;;;19.88;10.50;;;;;;;;;;5060969;28;20044;-72
2021/12/16 13:39:20;;;;;;;17.17;10.07;;;;;;;;;;5062268;28;20059;-73
2021/12/16 13:41:57;;;;;;;17.98;11.35;;;;;;;;;;5065567;28;20178;-72
2021/12/16 13:44:36;;;;;;;18.38;11.98;;;;;;;;;;5058496;28;20175;-73
2021/12/16 13:47:25;;;;;;;19.70;11.05;;;;;;;;;;5092159;28;20450;-73
2021/12/16 14:05:51;;;;;;;21.65;11.35;;;;;;;;;;5068500;28;20060;-73
2021/12/16 14:08:35;;;;;;;20.85;10.93;;;;;;;;;;5068985;28;20057;-72
2021/12/16 14:11:16;;;;;;;22.45;11.82;;;;;;;;;;5068616;28;20040;-72
2021/12/16 14:31:05;;;;;;;25.08;12.88;;;;;;;;;;5068014;28;20492;-72
2021/12/16 14:33:57;;;;;;;25.92;14.10;;;;;;;;;;5060253;28;20377;-72
2021/12/16 14:36:15;;;;;;;24.17;13.95;;;;;;;;;;5055935;28;20102;-72
2021/12/16 14:41:12;;;;;;;26.48;14.18;;;;;;;;;;5064189;28;20053;-72
2021/12/16 14:43:55;;;;;;;22.58;13.00;;;;;;;;;;5063359;28;20415;-73
2021/12/16 14:46:26;;;;;;;24.83;13.48;;;;;;;;;;5064208;28;20055;-73
2021/12/16 14:48:52;;;;;;;21.73;13.55;;;;;;;;;;5063745;28;20080;-72
2021/12/16 14:51:18;;;;;;;24.38;14.65;;;;;;;;;;5054605;28;20040;-72
2021/12/16 14:53:46;;;;;;;24.58;14.55;;;;;;;;;;5060791;28;20362;-72
2021/12/16 14:56:14;;;;;;;26.85;16.23;;;;;;;;;;5062089;28;20124;-72
2021/12/16 14:58:43;;;;;;;22.65;14.15;;;;;;;;;;5065367;28;20542;-72
2021/12/16 15:01:17;;;;;;;24.20;15.23;;;;;;;;;;5062778;28;20059;-72
2021/12/16 15:03:43;;;;;;;;;;;;;;;;;;5058085;28;20175;-72
2021/12/16 15:06:24;;;;;;;24.55;15.02;;;;;;;;;;5061311;28;19929;-72
2021/12/16 15:09:17;;;;;;;25.05;16.25;;;;;;;;;;5057937;28;20060;-71
2021/12/16 15:11:56;;;;;;;22.08;15.43;;;;;;;;;;5083718;28;20429;-72
2021/12/16 15:14:36;;;;;;;29.33;17.45;;;;;;;;;;5087945;28;20105;-72
2021/12/16 15:17:18;;;;;;;23.42;15.10;;;;;;;;;;5092691;28;20056;-72
2021/12/16 15:36:38;;;;;;;26.63;16.00;;;;;;;;;;5062099;28;20109;-72
2021/12/16 15:39:11;;;;;;;25.23;16.95;;;;;;;;;;5050633;28;20072;-72
2021/12/16 15:44:23;;;;;;;26.77;17.02;;;;;;;;;;5085124;28;20049;-71
2021/12/16 15:46:50;;;;;;;29.75;16.73;;;;;;;;;;5056000;28;20056;-72
2021/12/16 15:49:17;;;;;;;29.52;17.58;;;;;;;;;;5056812;28;20400;-71
2021/12/16 15:51:43;;;;;;;28.10;15.88;;;;;;;;;;5053294;28;20068;-71
2021/12/16 15:54:10;;;;;;;31.30;16.17;;;;;;;;;;5069680;28;20048;-72
2021/12/16 15:56:38;;;;;;;25.58;16.40;;;;;;;;;;5057519;28;20128;-72
2021/12/16 15:59:07;;;;;;;28.15;15.23;;;;;;;;;;5050492;28;20107;-71
2021/12/16 16:01:43;;;;;;;28.73;17.17;;;;;;;;;;5054474;28;20045;-72
2021/12/16 16:04:16;;;;;;;30.27;16.45;;;;;;;;;;5061842;28;20098;-71
2021/12/16 16:06:43;;;;;;;32.78;16.92;;;;;;;;;;5062092;28;20041;-72
2021/12/16 16:09:11;;;;;;;29.27;16.92;;;;;;;;;;5062445;28;20128;-71
2021/12/16 16:11:38;;;;;;;31.33;15.57;;;;;;;;;;5068747;28;20072;-72
2021/12/16 16:14:06;;;;;;;23.25;14.23;;;;;;;;;;5071870;28;20461;-72
2021/12/16 16:16:39;;;;;;;30.23;15.45;;;;;;;;;;5064519;28;20088;-72
2021/12/16 16:19:05;;;;;;;29.98;14.90;;;;;;;;;;5072332;28;20047;-72
2021/12/16 16:21:42;;;;;;;31.95;15.55;;;;;;;;;;5062931;28;20038;-72
2021/12/16 16:24:12;;;;;;;29.45;15.35;;;;;;;;;;5058991;28;20055;-72
2021/12/16 16:26:42;;;;;;;34.13;16.08;;;;;;;;;;5063672;28;20521;-72
2021/12/16 16:29:10;;;;;;;27.88;15.75;;;;;;;;;;5068830;28;20083;-72
2021/12/16 16:31:37;;;;;;;30.80;16.05;;;;;;;;;;5099984;28;20404;-72
2021/12/16 16:34:08;;;;;;;41.92;18.52;;;;;;;;;;5063125;28;20057;-72
2021/12/16 16:36:39;;;;;;;33.60;18.60;;;;;;;;;;5061094;28;20048;-72
2021/12/16 16:39:07;;;;;;;34.17;16.88;;;;;;;;;;5055101;28;20037;-72
2021/12/16 16:41:37;;;;;;;38.90;17.35;;;;;;;;;;5060945;28;20492;-72
2021/12/16 16:44:06;;;;;;;41.55;18.35;;;;;;;;;;5064687;28;20086;-71
2021/12/16 16:46:39;;;;;;;39.67;18.73;;;;;;;;;;5056203;28;20060;-71
2021/12/16 16:49:08;;;;;;;45.15;19.23;;;;;;;;;;5057084;28;20049;-72
2021/12/16 16:51:45;;;;;;;38.60;17.60;;;;;;;;;;5061442;28;20068;-72
2021/12/16 16:54:19;;;;;;;35.80;16.75;;;;;;;;;;5068830;28;20135;-71
2021/12/16 16:56:48;;;;;;;43.78;18.10;;;;;;;;;;5068771;28;20044;-72
2021/12/16 16:59:16;;;;;;;33.53;18.90;;;;;;;;;;5065533;28;20461;-71
2021/12/16 17:01:42;;;;;;;42.72;16.65;;;;;;;;;;5057473;28;20049;-72
2021/12/16 17:04:11;;;;;;;44.55;18.75;;;;;;;;;;5057992;28;20045;-72
2021/12/16 17:06:39;;;;;;;42.10;17.98;;;;;;;;;;5057410;28;20037;-72
2021/12/16 17:09:05;;;;;;;44.88;17.00;;;;;;;;;;5056166;28;20500;-72
2021/12/16 17:11:31;;;;;;;47.60;17.25;;;;;;;;;;5069033;28;20040;-72
2021/12/16 17:14:11;;;;;;;62.90;17.27;;;;;;;;;;5059745;28;20049;-72
2021/12/16 17:19:28;;;;;;;68.40;14.43;;;;;;;;;;5089496;28;20049;-72
2021/12/16 17:21:54;;;;;;;57.30;14.52;;;;;;;;;;5059215;28;20116;-72
2021/12/16 17:24:22;;;;;;;72.30;14.80;;;;;;;;;;5052911;28;20048;-72
2021/12/16 17:26:51;;;;;;;47.85;13.55;;;;;;;;;;5057327;28;20177;-71
2021/12/16 17:29:29;;;;;;;35.05;13.90;;;;;;;;;;5069373;28;20238;-71
2021/12/16 17:32:08;;;;;;;50.97;13.25;;;;;;;;;;5058366;28;20103;-72
2021/12/16 17:34:38;;;;;;;57.58;12.95;;;;;;;;;;5060583;28;20049;-72
2021/12/16 17:37:07;;;;;;;42.97;12.70;;;;;;;;;;5061121;28;20067;-71
2021/12/16 17:39:37;;;;;;;44.45;18.63;;;;;;;;;;5059109;28;20045;-72
2021/12/16 17:42:05;;;;;;;54.75;16.02;;;;;;;;;;5062579;28;20037;-71
2021/12/16 17:44:32;;;;;;;52.22;16.05;;;;;;;;;;5096559;27;20056;-71
2021/12/16 17:47:01;;;;;;;42.25;12.05;;;;;;;;;;5059798;28;20090;-71
2021/12/16 17:49:27;;;;;;;37.38;11.63;;;;;;;;;;5076811;28;20032;-71
2021/12/16 17:51:53;;;;;;;45.90;13.05;;;;;;;;;;5057112;28;20041;-70
2021/12/16 17:54:19;;;;;;;36.15;12.30;;;;;;;;;;5063244;28;20056;-72
2021/12/16 17:56:54;;;;;;;36.65;10.88;;;;;;;;;;5068306;28;20060;-71
2021/12/16 17:59:21;;;;;;;49.95;12.05;;;;;;;;;;5054288;28;20416;-71
2021/12/16 18:01:48;;;;;;;34.55;10.52;;;;;;;;;;5061513;28;20059;-71
2021/12/16 18:04:16;;;;;;;48.83;12.15;;;;;;;;;;5059566;28;20105;-71
2021/12/16 18:06:44;;;;;;;46.63;14.25;;;;;;;;;;5060854;28;20056;-71